createdAt,value
2023-05-05T00:01:33.193Z,4.50
2023-05-05T00:04:00.049Z,4.80
2023-05-05T00:06:28.457Z,4.80
2023-05-05T00:08:56.278Z,4.70
2023-05-05T00:11:23.091Z,4.50
2023-05-05T00:13:49.884Z,4.30
2023-05-05T00:16:17.080Z,4.60
2023-05-05T00:18:44.498Z,4.60
2023-05-05T00:21:11.266Z,6.00
2023-05-05T00:23:38.009Z,4.40
2023-05-05T00:26:04.704Z,5.00
2023-05-05T00:28:31.539Z,4.00
2023-05-05T00:30:58.876Z,4.80
2023-05-05T00:33:25.926Z,5.30
2023-05-05T00:35:52.718Z,5.20
2023-05-05T00:38:19.428Z,5.00
2023-05-05T00:40:46.220Z,5.90
2023-05-05T00:43:13.024Z,5.60
2023-05-05T00:45:42.889Z,6.40
2023-05-05T00:48:11.170Z,6.70
2023-05-05T00:50:37.979Z,6.30
2023-05-05T00:53:06.098Z,6.30
2023-05-05T00:55:33.757Z,6.10
2023-05-05T00:58:01.132Z,6.20
2023-05-05T01:00:28.121Z,5.30
2023-05-05T01:02:55.440Z,4.90
2023-05-05T01:05:22.636Z,4.70
2023-05-05T01:08:06.979Z,6.30
2023-05-05T01:10:38.746Z,6.00
2023-05-05T01:13:09.530Z,6.10
2023-05-05T01:15:37.880Z,6.70
2023-05-05T01:18:23.339Z,7.70
2023-05-05T01:21:02.016Z,6.50
2023-05-05T01:23:45.358Z,7.00
2023-05-05T01:26:37.490Z,6.40
2023-05-05T01:29:26.059Z,6.50
2023-05-05T01:31:53.792Z,6.80
2023-05-05T01:34:26.483Z,6.90
2023-05-05T01:36:57.539Z,6.20
2023-05-05T01:39:24.945Z,6.70
2023-05-05T01:41:51.779Z,7.10
2023-05-05T01:44:19.922Z,6.70
2023-05-05T01:46:47.820Z,5.90
2023-05-05T01:49:14.536Z,6.00
2023-05-05T01:51:41.212Z,5.50
2023-05-05T01:54:08.432Z,6.20
2023-05-05T01:56:35.281Z,4.90
2023-05-05T01:59:02.238Z,6.30
2023-05-05T02:01:29.013Z,6.40
2023-05-05T02:03:59.186Z,6.20
2023-05-05T02:06:26.875Z,6.30
2023-05-05T02:08:53.565Z,6.60
2023-05-05T02:11:21.539Z,6.80
2023-05-05T02:13:48.649Z,6.40
2023-05-05T02:16:15.847Z,6.40
2023-05-05T02:18:42.688Z,6.70
2023-05-05T02:21:09.384Z,6.50
2023-05-05T02:23:36.433Z,5.80
2023-05-05T02:26:09.672Z,5.60
2023-05-05T02:28:47.192Z,5.60
2023-05-05T02:31:14.026Z,5.30
2023-05-05T02:33:41.004Z,5.40
2023-05-05T02:36:12.694Z,5.40
2023-05-05T02:38:46.706Z,5.30
2023-05-05T02:41:16.614Z,5.80
2023-05-05T02:43:44.135Z,5.70
2023-05-05T02:46:11.137Z,5.70
2023-05-05T02:48:38.098Z,5.60
2023-05-05T02:51:05.832Z,6.00
2023-05-05T02:53:35.599Z,6.30
2023-05-05T02:56:21.022Z,6.30
2023-05-05T02:59:09.293Z,7.60
2023-05-05T03:01:53.180Z,5.90
2023-05-05T03:04:28.770Z,6.50
2023-05-05T03:07:00.233Z,6.30
2023-05-05T03:09:28.124Z,6.50
2023-05-05T03:12:01.173Z,6.10
2023-05-05T03:14:32.091Z,6.20
2023-05-05T03:17:00.571Z,6.40
2023-05-05T03:19:27.284Z,7.00
2023-05-05T03:21:55.704Z,6.30
2023-05-05T03:24:22.961Z,6.40
2023-05-05T03:26:58.625Z,6.80
2023-05-05T03:29:30.137Z,6.90
2023-05-05T03:31:58.171Z,6.30
2023-05-05T03:34:25.285Z,6.20
2023-05-05T03:36:52.093Z,5.50
2023-05-05T03:39:19.348Z,6.60
2023-05-05T03:41:46.217Z,5.60
2023-05-05T03:44:13.179Z,5.90
2023-05-05T03:46:39.891Z,5.30
2023-05-05T03:49:09.827Z,5.70
2023-05-05T03:51:37.157Z,5.60
2023-05-05T03:54:03.882Z,5.50
2023-05-05T03:56:30.721Z,4.90
2023-05-05T03:58:57.436Z,5.00
2023-05-05T04:01:24.330Z,5.10
2023-05-05T04:03:51.331Z,5.20
2023-05-05T04:06:18.139Z,4.90
2023-05-05T04:08:44.925Z,5.20
2023-05-05T04:11:11.719Z,4.30
2023-05-05T04:13:39.253Z,4.40
2023-05-05T04:16:06.337Z,4.20
2023-05-05T04:18:33.101Z,4.80
2023-05-05T04:21:00.251Z,4.00
2023-05-05T04:23:27.361Z,3.60
2023-05-05T04:25:54.240Z,3.50
2023-05-05T04:28:21.977Z,4.00
2023-05-05T04:30:49.160Z,3.60
2023-05-05T04:33:16.047Z,4.10
2023-05-05T04:35:42.862Z,3.20
2023-05-05T04:38:09.847Z,3.30
2023-05-05T04:40:41.278Z,3.60
2023-05-05T04:43:08.637Z,3.50
2023-05-05T04:45:35.638Z,2.70
2023-05-05T04:48:04.320Z,2.80
2023-05-05T04:50:31.625Z,2.40
2023-05-05T04:52:58.404Z,2.40
2023-05-05T04:55:25.497Z,2.70
2023-05-05T04:57:52.229Z,2.40
2023-05-05T05:00:19.057Z,2.50
2023-05-05T05:02:45.908Z,2.60
2023-05-05T05:05:12.785Z,2.40
2023-05-05T05:07:39.589Z,2.00
2023-05-05T05:10:07.129Z,2.20
2023-05-05T05:12:34.137Z,2.20
2023-05-05T05:15:00.911Z,2.20
2023-05-05T05:17:27.752Z,1.90
2023-05-05T05:19:55.458Z,1.90
2023-05-05T05:22:22.498Z,1.70
2023-05-05T05:24:49.510Z,1.60
2023-05-05T05:27:16.284Z,1.40
2023-05-05T05:29:44.124Z,1.90
2023-05-05T05:32:11.164Z,1.60
2023-05-05T05:34:38.290Z,1.90
2023-05-05T05:37:05.564Z,1.90
2023-05-05T05:39:32.592Z,1.80
2023-05-05T05:41:59.544Z,1.90
2023-05-05T05:44:26.430Z,1.70
2023-05-05T05:46:53.257Z,1.70
2023-05-05T05:49:20.127Z,1.80
2023-05-05T05:51:47.079Z,1.50
2023-05-05T05:54:13.802Z,1.50
2023-05-05T05:56:40.652Z,1.10
2023-05-05T05:59:10.700Z,2.10
2023-05-05T06:01:38.078Z,2.30
2023-05-05T06:04:04.999Z,1.50
2023-05-05T06:06:31.993Z,1.70
2023-05-05T06:08:58.884Z,1.20
2023-05-05T06:11:26.171Z,1.50
2023-05-05T06:13:52.859Z,1.90
2023-05-05T06:16:19.727Z,1.40
2023-05-05T06:18:47.350Z,1.10
2023-05-05T06:21:14.250Z,1.80
2023-05-05T06:23:42.132Z,1.50
2023-05-05T06:26:09.179Z,1.10
2023-05-05T06:28:35.957Z,1.20
2023-05-05T06:31:02.822Z,1.20
2023-05-05T06:33:29.675Z,1.20
2023-05-05T06:35:56.375Z,1.10
2023-05-05T06:38:23.092Z,1.60
2023-05-05T06:40:50.334Z,1.30
2023-05-05T06:43:17.157Z,1.10
2023-05-05T06:45:47.582Z,1.10
2023-05-05T06:48:14.427Z,1.40
2023-05-05T06:50:41.221Z,1.10
2023-05-05T06:53:08.034Z,1.40
2023-05-05T06:55:34.901Z,1.00
2023-05-05T06:58:01.841Z,1.90
2023-05-05T07:00:28.662Z,1.10
2023-05-05T07:02:55.500Z,1.00
2023-05-05T07:05:22.442Z,0.90
2023-05-05T07:07:55.836Z,1.00
2023-05-05T07:10:23.280Z,1.80
2023-05-05T07:12:50.368Z,1.10
2023-05-05T07:15:28.097Z,1.00
2023-05-05T07:17:56.486Z,1.20
2023-05-05T07:20:23.460Z,1.00
2023-05-05T07:22:50.422Z,1.40
2023-05-05T07:25:17.382Z,1.00
2023-05-05T07:27:44.209Z,0.90
2023-05-05T07:30:14.743Z,1.20
2023-05-05T07:32:44.407Z,0.90
2023-05-05T07:35:11.356Z,1.20
2023-05-05T07:37:38.151Z,1.40
2023-05-05T07:40:05.931Z,0.80
2023-05-05T07:42:32.935Z,0.90
2023-05-05T07:44:59.716Z,1.50
2023-05-05T07:47:26.798Z,0.80
2023-05-05T07:49:53.947Z,1.50
2023-05-05T07:52:30.049Z,1.10
2023-05-05T07:55:04.923Z,1.00
2023-05-05T07:57:31.718Z,1.20
2023-05-05T07:59:58.410Z,1.10
2023-05-05T08:02:25.344Z,2.20
2023-05-05T08:04:52.166Z,1.10
2023-05-05T08:07:18.944Z,1.20
2023-05-05T08:09:45.772Z,1.20
2023-05-05T08:12:12.656Z,1.40
2023-05-05T08:14:40.517Z,1.10
2023-05-05T08:17:07.470Z,1.40
2023-05-05T08:19:34.531Z,1.20
2023-05-05T08:22:01.763Z,1.40
2023-05-05T08:24:28.744Z,1.10
2023-05-05T08:26:56.720Z,1.30
2023-05-05T08:29:23.647Z,1.30
2023-05-05T08:31:50.406Z,1.20
2023-05-05T08:34:17.108Z,1.20
2023-05-05T08:36:43.864Z,1.60
2023-05-05T08:39:10.937Z,1.20
2023-05-05T08:41:37.816Z,0.90
2023-05-05T08:44:04.591Z,1.50
2023-05-05T08:46:31.469Z,1.10
2023-05-05T08:48:58.470Z,1.30
2023-05-05T08:51:25.922Z,1.10
2023-05-05T08:54:02.557Z,1.10
2023-05-05T08:56:33.825Z,1.00
2023-05-05T08:59:01.591Z,1.00
2023-05-05T09:01:28.523Z,0.90
2023-05-05T09:03:55.929Z,1.50
2023-05-05T09:06:23.571Z,0.90
2023-05-05T09:08:50.424Z,1.20
2023-05-05T09:11:17.165Z,1.10
2023-05-05T09:13:44.002Z,0.90
2023-05-05T09:16:10.929Z,1.00
2023-05-05T09:18:38.023Z,0.90
2023-05-05T09:21:24.775Z,0.90
2023-05-05T09:24:08.111Z,1.00
2023-05-05T09:26:37.050Z,0.80
2023-05-05T09:29:04.088Z,1.10
2023-05-05T09:31:31.604Z,0.90
2023-05-05T09:34:01.044Z,0.70
2023-05-05T09:36:50.397Z,1.00
2023-05-05T09:39:18.260Z,0.90
2023-05-05T09:41:45.223Z,1.20
2023-05-05T09:44:12.505Z,0.70
2023-05-05T09:46:49.181Z,0.80
2023-05-05T09:49:19.296Z,1.10
2023-05-05T09:51:46.658Z,0.90
2023-05-05T09:54:24.091Z,1.00
2023-05-05T09:56:50.979Z,1.20
2023-05-05T09:59:17.946Z,1.50
2023-05-05T10:01:44.724Z,0.90
2023-05-05T10:04:25.032Z,0.80
2023-05-05T10:06:51.913Z,0.90
2023-05-05T10:09:18.673Z,0.80
2023-05-05T10:11:46.412Z,0.90
2023-05-05T10:14:14.788Z,1.00
2023-05-05T10:16:51.223Z,2.00
2023-05-05T10:19:19.320Z,1.50
2023-05-05T10:21:48.300Z,1.20
2023-05-05T10:24:47.238Z,0.90
2023-05-05T10:27:20.635Z,0.90
2023-05-05T10:30:07.572Z,0.70
2023-05-05T10:35:22.299Z,1.30
2023-05-05T10:37:49.240Z,1.60
2023-05-05T10:40:16.676Z,0.90
2023-05-05T10:42:43.555Z,1.30
2023-05-05T10:45:10.447Z,1.10
2023-05-05T10:47:37.762Z,1.20
2023-05-05T10:50:30.006Z,1.20
2023-05-05T10:53:32.711Z,1.60
2023-05-05T10:56:11.733Z,1.40
2023-05-05T10:58:55.502Z,1.50
2023-05-05T11:01:43.823Z,1.00
2023-05-05T11:04:16.961Z,1.10
2023-05-05T11:07:10.433Z,1.20
2023-05-05T11:10:10.778Z,1.40
2023-05-05T11:12:57.948Z,0.90
2023-05-05T11:15:27.909Z,1.00
2023-05-05T11:17:58.194Z,1.10
2023-05-05T11:20:37.650Z,0.90
2023-05-05T11:23:04.873Z,1.00
2023-05-05T11:25:35.319Z,1.10
2023-05-05T11:28:05.768Z,1.30
2023-05-05T11:30:32.654Z,1.10
2023-05-05T11:33:30.686Z,1.50
2023-05-05T11:36:06.488Z,1.50
2023-05-05T11:38:48.754Z,1.10
2023-05-05T11:41:33.715Z,1.40
2023-05-05T11:44:19.750Z,1.70
2023-05-05T11:46:52.710Z,1.50
2023-05-05T11:49:32.462Z,1.30
2023-05-05T11:52:01.138Z,1.30
2023-05-05T11:54:28.032Z,1.50
2023-05-05T11:57:04.998Z,1.00
2023-05-05T11:59:32.332Z,1.20
2023-05-05T12:01:59.243Z,1.00
2023-05-05T12:04:26.120Z,1.10
2023-05-05T12:06:52.841Z,1.00
2023-05-05T12:09:21.265Z,1.10
2023-05-05T12:11:52.524Z,1.00
2023-05-05T12:14:19.471Z,1.10
2023-05-05T12:16:55.953Z,1.10
2023-05-05T12:19:22.804Z,1.10
2023-05-05T12:21:49.578Z,1.30
2023-05-05T12:24:16.605Z,1.40
2023-05-05T12:26:43.375Z,1.20
2023-05-05T12:29:10.085Z,0.90
2023-05-05T12:31:41.514Z,1.20
2023-05-05T12:34:09.084Z,1.20
2023-05-05T12:36:36.321Z,1.70
2023-05-05T12:39:05.073Z,1.20
2023-05-05T12:41:32.325Z,1.00
2023-05-05T12:43:59.674Z,2.30
2023-05-05T12:46:26.712Z,1.20
2023-05-05T12:49:08.058Z,1.00
2023-05-05T12:51:36.061Z,1.30
2023-05-05T12:54:05.412Z,1.50
2023-05-05T12:56:45.836Z,1.40
2023-05-05T12:59:18.078Z,1.20
2023-05-05T13:01:52.156Z,1.00
2023-05-05T13:04:19.563Z,1.20
2023-05-05T13:06:47.618Z,1.40
2023-05-05T13:09:23.693Z,1.60
2023-05-05T13:11:50.484Z,1.20
2023-05-05T13:14:17.210Z,1.10
2023-05-05T13:16:44.059Z,1.60
2023-05-05T13:19:10.876Z,1.70
2023-05-05T13:21:37.567Z,1.00
2023-05-05T13:24:21.211Z,1.10
2023-05-05T13:26:51.777Z,1.40
2023-05-05T13:29:18.645Z,2.50
2023-05-05T13:31:45.578Z,1.20
2023-05-05T13:34:12.340Z,1.50
2023-05-05T13:36:39.085Z,1.50
2023-05-05T13:39:05.854Z,1.00
2023-05-05T13:41:32.633Z,1.20
2023-05-05T13:43:59.348Z,1.40
2023-05-05T13:46:26.258Z,1.00
2023-05-05T13:48:56.653Z,1.00
2023-05-05T13:51:23.670Z,0.80
2023-05-05T13:53:50.505Z,1.30
2023-05-05T13:56:19.120Z,1.30
2023-05-05T13:58:46.385Z,0.80
2023-05-05T14:01:13.290Z,0.90
2023-05-05T14:03:40.436Z,1.20
2023-05-05T14:06:09.097Z,1.10
2023-05-05T14:08:35.844Z,2.00
2023-05-05T14:11:03.274Z,1.40
2023-05-05T14:13:30.033Z,1.40
2023-05-05T14:15:58.345Z,1.20
2023-05-05T14:18:28.497Z,1.00
2023-05-05T14:20:55.382Z,1.30
2023-05-05T14:23:22.085Z,1.10
2023-05-05T14:25:48.850Z,1.10
2023-05-05T14:28:15.598Z,1.10
2023-05-05T14:30:42.308Z,0.80
2023-05-05T14:33:08.976Z,0.80
2023-05-05T14:35:35.753Z,1.00
2023-05-05T14:38:02.515Z,1.20
2023-05-05T14:40:30.325Z,1.50
2023-05-05T14:43:00.201Z,1.50
2023-05-05T14:45:29.548Z,1.10
2023-05-05T14:47:56.372Z,1.20
2023-05-05T14:50:23.294Z,1.20
2023-05-05T14:52:50.515Z,1.40
2023-05-05T14:55:17.288Z,1.10
2023-05-05T14:57:44.096Z,1.40
2023-05-05T15:00:11.295Z,1.00
2023-05-05T15:02:38.497Z,1.40
2023-05-05T15:05:06.616Z,1.30
2023-05-05T15:07:33.969Z,1.40
2023-05-05T15:10:03.259Z,1.80
2023-05-05T15:12:30.051Z,1.30
2023-05-05T15:14:56.804Z,1.10
2023-05-05T15:17:23.578Z,1.20
2023-05-05T15:19:50.398Z,1.30
2023-05-05T15:22:17.383Z,1.10
2023-05-05T15:24:44.715Z,1.10
2023-05-05T15:27:11.685Z,1.90
2023-05-05T15:29:38.373Z,1.50
2023-05-05T15:32:06.026Z,1.50
2023-05-05T15:34:32.867Z,1.30
2023-05-05T15:36:59.625Z,1.00
2023-05-05T15:39:26.369Z,1.10
2023-05-05T15:41:53.086Z,1.40
2023-05-05T15:44:21.133Z,1.70
2023-05-05T15:46:50.220Z,1.10
2023-05-05T15:49:17.285Z,1.30
2023-05-05T15:51:44.087Z,1.10
2023-05-05T15:54:10.959Z,1.20
2023-05-05T15:56:37.780Z,0.80
2023-05-05T15:59:07.493Z,1.00
2023-05-05T16:01:36.305Z,1.30
2023-05-05T16:04:03.676Z,1.30
2023-05-05T16:06:30.606Z,1.20
2023-05-05T16:08:58.695Z,1.60
2023-05-05T16:11:33.606Z,1.20
2023-05-05T16:14:00.627Z,1.60
2023-05-05T16:16:27.436Z,1.20
2023-05-05T16:18:55.088Z,1.00
2023-05-05T16:21:22.307Z,1.10
2023-05-05T16:23:49.629Z,1.40
2023-05-05T16:26:16.514Z,1.50
2023-05-05T16:28:43.256Z,1.50
2023-05-05T16:31:11.069Z,1.30
2023-05-05T16:33:43.683Z,1.30
2023-05-05T16:36:11.803Z,1.50
2023-05-05T16:38:39.589Z,1.60
2023-05-05T16:41:09.337Z,1.20
2023-05-05T16:43:37.278Z,1.20
2023-05-05T16:46:04.265Z,1.50
2023-05-05T16:48:31.077Z,1.30
2023-05-05T16:50:58.144Z,2.30
2023-05-05T16:53:25.549Z,2.90
2023-05-05T16:55:53.052Z,3.50
2023-05-05T16:58:23.012Z,3.80
2023-05-05T17:00:50.403Z,2.80
2023-05-05T17:03:18.077Z,2.10
2023-05-05T17:05:46.629Z,2.10
2023-05-05T17:08:15.291Z,2.40
2023-05-05T17:10:42.277Z,2.40
2023-05-05T17:13:10.065Z,3.10
2023-05-05T17:15:37.546Z,3.10
2023-05-05T17:18:05.686Z,2.30
2023-05-05T17:20:33.399Z,2.60
2023-05-05T17:23:02.099Z,2.60
2023-05-05T17:25:29.136Z,2.60
2023-05-05T17:27:56.223Z,2.70
2023-05-05T17:30:23.201Z,2.30
2023-05-05T17:32:49.960Z,2.20
2023-05-05T17:35:16.801Z,2.20
2023-05-05T17:37:44.367Z,1.60
2023-05-05T17:40:18.752Z,1.50
2023-05-05T17:42:46.008Z,2.00
2023-05-05T17:45:12.920Z,1.80
2023-05-05T17:47:39.814Z,1.50
2023-05-05T17:50:07.061Z,1.70
2023-05-05T17:52:34.058Z,1.70
2023-05-05T17:55:00.939Z,1.50
2023-05-05T17:57:28.723Z,1.20
2023-05-05T17:59:55.693Z,1.50
2023-05-05T18:02:24.089Z,1.40
2023-05-05T18:04:56.427Z,1.60
2023-05-05T18:07:23.887Z,1.60
2023-05-05T18:09:50.792Z,2.20
2023-05-05T18:12:17.541Z,1.90
2023-05-05T18:14:44.812Z,1.60
2023-05-05T18:17:14.908Z,2.00
2023-05-05T18:19:46.168Z,2.10
2023-05-05T18:22:17.338Z,2.40
2023-05-05T18:24:46.230Z,2.40
2023-05-05T18:27:13.111Z,2.00
2023-05-05T18:29:43.119Z,2.30
2023-05-05T18:32:10.245Z,1.90
2023-05-05T18:34:37.702Z,2.20
2023-05-05T18:37:08.045Z,1.70
2023-05-05T18:39:38.965Z,1.60
2023-05-05T18:42:07.875Z,2.10
2023-05-05T18:44:37.590Z,2.10
2023-05-05T18:47:04.895Z,3.10
2023-05-05T18:49:32.495Z,2.30
2023-05-05T18:51:59.377Z,1.80
2023-05-05T18:54:26.534Z,1.90
2023-05-05T18:56:53.376Z,2.20
2023-05-05T18:59:20.859Z,2.10
2023-05-05T19:01:50.879Z,2.30
2023-05-05T19:04:30.112Z,2.30
2023-05-05T19:06:57.711Z,2.90
2023-05-05T19:09:24.436Z,2.90
2023-05-05T19:11:51.300Z,2.90
2023-05-05T19:14:18.840Z,3.10
2023-05-05T19:16:46.316Z,3.10
2023-05-05T19:19:13.153Z,3.10
2023-05-05T19:21:40.006Z,2.90
2023-05-05T19:24:09.319Z,2.90
2023-05-05T19:26:36.704Z,2.80
2023-05-05T19:29:03.756Z,3.00
2023-05-05T19:31:31.307Z,3.10
2023-05-05T19:34:03.369Z,3.00
2023-05-05T19:36:34.051Z,3.80
2023-05-05T19:39:01.848Z,3.50
2023-05-05T19:41:29.923Z,3.60
2023-05-05T19:43:57.958Z,3.10
2023-05-05T19:46:26.650Z,2.90
2023-05-05T19:48:53.728Z,2.80
2023-05-05T19:51:20.662Z,3.10
2023-05-05T19:53:47.456Z,2.70
2023-05-05T19:56:14.305Z,2.50
2023-05-05T19:58:58.933Z,3.30
2023-05-05T20:01:26.424Z,3.10
2023-05-05T20:03:54.836Z,3.00
2023-05-05T20:06:22.329Z,2.80
2023-05-05T20:08:49.239Z,3.20
2023-05-05T20:11:16.226Z,2.80
2023-05-05T20:13:43.245Z,2.50
2023-05-05T20:16:10.218Z,2.40
2023-05-05T20:18:37.045Z,1.80
2023-05-05T20:21:03.905Z,1.90
2023-05-05T20:23:30.784Z,2.40
2023-05-05T20:25:57.835Z,2.30
2023-05-05T20:28:24.683Z,1.70
2023-05-05T20:30:51.648Z,1.90
2023-05-05T20:33:18.520Z,2.00
2023-05-05T20:35:45.336Z,1.90
2023-05-05T20:38:12.110Z,1.80
2023-05-05T20:40:39.733Z,2.40
2023-05-05T20:43:06.551Z,2.10
2023-05-05T20:45:37.112Z,2.10
2023-05-05T20:48:04.779Z,1.60
2023-05-05T20:50:31.877Z,2.00
2023-05-05T20:52:58.746Z,1.90
2023-05-05T20:55:25.648Z,1.50
2023-05-05T20:57:52.529Z,1.60
2023-05-05T21:00:19.368Z,1.60
2023-05-05T21:02:46.338Z,1.60
2023-05-05T21:05:14.067Z,1.80
2023-05-05T21:07:40.898Z,1.70
2023-05-05T21:10:08.290Z,1.80
2023-05-05T21:12:35.520Z,1.80
2023-05-05T21:15:02.594Z,2.00
2023-05-05T21:17:29.462Z,1.60
2023-05-05T21:19:56.915Z,1.30
2023-05-05T21:22:23.626Z,1.60
2023-05-05T21:24:50.749Z,1.50
2023-05-05T21:27:17.538Z,1.60
2023-05-05T21:29:44.239Z,1.80
2023-05-05T21:32:11.408Z,1.60
2023-05-05T21:34:38.786Z,2.20
2023-05-05T21:37:06.084Z,2.20
2023-05-05T21:39:33.283Z,1.90
2023-05-05T21:42:00.386Z,1.90
2023-05-05T21:44:28.271Z,2.00
2023-05-05T21:46:55.658Z,1.80
2023-05-05T21:49:23.978Z,2.50
2023-05-05T21:51:50.764Z,2.40
2023-05-05T21:54:17.499Z,2.30
2023-05-05T21:56:44.257Z,1.90
2023-05-05T21:59:11.112Z,2.00
2023-05-05T22:01:37.909Z,2.10
2023-05-05T22:04:05.243Z,1.80
2023-05-05T22:06:32.547Z,1.80
2023-05-05T22:08:59.390Z,2.10
2023-05-05T22:11:26.908Z,2.20
2023-05-05T22:13:53.844Z,2.70
2023-05-05T22:16:20.745Z,1.20
2023-05-05T22:18:47.537Z,2.20
2023-05-05T22:21:14.232Z,2.30
2023-05-05T22:23:43.814Z,1.70
2023-05-05T22:26:10.631Z,1.60
2023-05-05T22:28:38.218Z,2.10
2023-05-05T22:31:05.022Z,1.90
2023-05-05T22:33:32.047Z,1.90
2023-05-05T22:35:58.780Z,2.20
2023-05-05T22:38:25.927Z,1.90
2023-05-05T22:40:53.007Z,1.90
2023-05-05T22:43:20.787Z,2.00
2023-05-05T22:45:47.900Z,1.70
2023-05-05T22:48:15.065Z,2.40
2023-05-05T22:50:41.905Z,2.00
2023-05-05T22:53:08.693Z,1.80
2023-05-05T22:55:36.059Z,2.00
2023-05-05T22:58:02.740Z,1.70
2023-05-05T23:00:29.917Z,1.80
2023-05-05T23:02:56.798Z,1.80
2023-05-05T23:05:23.570Z,2.00
2023-05-05T23:07:50.343Z,1.60
2023-05-05T23:10:17.108Z,1.70
2023-05-05T23:12:43.822Z,1.70
2023-05-05T23:15:11.352Z,1.90
2023-05-05T23:17:38.355Z,2.00
2023-05-05T23:20:06.286Z,1.80
2023-05-05T23:22:33.015Z,2.10
2023-05-05T23:24:59.723Z,2.00
2023-05-05T23:27:28.625Z,1.70
2023-05-05T23:29:57.581Z,1.70
2023-05-05T23:34:55.332Z,2.10
2023-05-05T23:37:23.588Z,1.60
2023-05-05T23:39:51.083Z,1.70
2023-05-05T23:42:18.517Z,1.50
2023-05-05T23:44:45.513Z,1.80
2023-05-05T23:47:12.282Z,1.70
2023-05-05T23:49:39.015Z,1.30
2023-05-05T23:52:05.865Z,1.50
2023-05-05T23:54:32.595Z,1.40
2023-05-05T23:57:00.287Z,1.70
2023-05-05T23:59:26.988Z,1.60
